sensor_id;sensor_type;location;lat;lon;timestamp;temperature;humidity
19567;DHT22;9930;49.240;8.548;2024-03-22T00:01:54;13.10;65.40
19567;DHT22;9930;49.240;8.548;2024-03-22T00:04:21;13.00;64.80
19567;DHT22;9930;49.240;8.548;2024-03-22T00:06:48;13.00;64.90
19567;DHT22;9930;49.240;8.548;2024-03-22T00:09:15;12.90;65.70
19567;DHT22;9930;49.240;8.548;2024-03-22T00:11:43;12.90;65.00
19567;DHT22;9930;49.240;8.548;2024-03-22T00:14:10;12.90;65.10
19567;DHT22;9930;49.240;8.548;2024-03-22T00:16:37;12.90;65.20
19567;DHT22;9930;49.240;8.548;2024-03-22T00:19:03;12.90;65.20
19567;DHT22;9930;49.240;8.548;2024-03-22T00:21:30;12.90;65.30
19567;DHT22;9930;49.240;8.548;2024-03-22T00:23:57;12.80;65.40
19567;DHT22;9930;49.240;8.548;2024-03-22T00:26:23;12.80;65.50
19567;DHT22;9930;49.240;8.548;2024-03-22T00:28:49;12.80;65.70
19567;DHT22;9930;49.240;8.548;2024-03-22T00:31:16;12.80;66.10
19567;DHT22;9930;49.240;8.548;2024-03-22T00:33:42;12.80;65.70
19567;DHT22;9930;49.240;8.548;2024-03-22T00:36:08;12.80;65.70
19567;DHT22;9930;49.240;8.548;2024-03-22T00:38:34;12.80;65.70
19567;DHT22;9930;49.240;8.548;2024-03-22T00:41:00;12.80;65.60
19567;DHT22;9930;49.240;8.548;2024-03-22T00:43:26;12.70;65.70
19567;DHT22;9930;49.240;8.548;2024-03-22T00:45:53;12.70;65.60
19567;DHT22;9930;49.240;8.548;2024-03-22T00:48:18;12.70;65.80
19567;DHT22;9930;49.240;8.548;2024-03-22T00:50:44;12.70;65.80
19567;DHT22;9930;49.240;8.548;2024-03-22T00:53:10;12.60;65.80
19567;DHT22;9930;49.240;8.548;2024-03-22T00:55:36;12.60;65.80
19567;DHT22;9930;49.240;8.548;2024-03-22T00:58:01;12.60;65.80
19567;DHT22;9930;49.240;8.548;2024-03-22T01:00:28;12.50;65.80
19567;DHT22;9930;49.240;8.548;2024-03-22T01:02:54;12.50;65.90
19567;DHT22;9930;49.240;8.548;2024-03-22T01:05:20;12.50;66.00
19567;DHT22;9930;49.240;8.548;2024-03-22T01:07:45;12.40;66.00
19567;DHT22;9930;49.240;8.548;2024-03-22T01:10:12;12.40;66.10
19567;DHT22;9930;49.240;8.548;2024-03-22T01:12:38;12.30;66.10
19567;DHT22;9930;49.240;8.548;2024-03-22T01:15:05;12.30;66.20
19567;DHT22;9930;49.240;8.548;2024-03-22T01:17:32;12.30;66.40
19567;DHT22;9930;49.240;8.548;2024-03-22T01:19:58;12.30;66.40
19567;DHT22;9930;49.240;8.548;2024-03-22T01:22:24;12.20;66.40
19567;DHT22;9930;49.240;8.548;2024-03-22T01:24:50;12.20;66.60
19567;DHT22;9930;49.240;8.548;2024-03-22T01:27:15;12.20;66.50
19567;DHT22;9930;49.240;8.548;2024-03-22T01:29:41;12.10;66.40
19567;DHT22;9930;49.240;8.548;2024-03-22T01:32:07;12.10;66.60
19567;DHT22;9930;49.240;8.548;2024-03-22T01:34:33;12.10;66.70
19567;DHT22;9930;49.240;8.548;2024-03-22T01:37:00;12.00;66.70
19567;DHT22;9930;49.240;8.548;2024-03-22T01:39:26;12.00;66.70
19567;DHT22;9930;49.240;8.548;2024-03-22T01:41:53;12.00;66.70
19567;DHT22;9930;49.240;8.548;2024-03-22T01:44:19;12.00;66.90
19567;DHT22;9930;49.240;8.548;2024-03-22T01:46:45;11.90;66.90
19567;DHT22;9930;49.240;8.548;2024-03-22T01:49:16;11.90;67.10
19567;DHT22;9930;49.240;8.548;2024-03-22T01:51:42;11.90;67.30
19567;DHT22;9930;49.240;8.548;2024-03-22T01:54:09;11.80;67.20
19567;DHT22;9930;49.240;8.548;2024-03-22T01:56:38;11.90;68.10
19567;DHT22;9930;49.240;8.548;2024-03-22T01:59:05;11.80;67.50
19567;DHT22;9930;49.240;8.548;2024-03-22T02:01:32;11.80;67.50
19567;DHT22;9930;49.240;8.548;2024-03-22T02:03:58;11.80;67.60
19567;DHT22;9930;49.240;8.548;2024-03-22T02:06:24;11.80;67.60
19567;DHT22;9930;49.240;8.548;2024-03-22T02:08:50;11.80;67.50
19567;DHT22;9930;49.240;8.548;2024-03-22T02:11:16;11.80;67.60
19567;DHT22;9930;49.240;8.548;2024-03-22T02:13:41;11.70;67.60
19567;DHT22;9930;49.240;8.548;2024-03-22T02:16:08;11.70;67.60
19567;DHT22;9930;49.240;8.548;2024-03-22T02:18:34;11.70;67.70
19567;DHT22;9930;49.240;8.548;2024-03-22T02:21:00;11.70;67.90
19567;DHT22;9930;49.240;8.548;2024-03-22T02:23:44;11.70;68.10
19567;DHT22;9930;49.240;8.548;2024-03-22T02:26:09;11.70;68.80
19567;DHT22;9930;49.240;8.548;2024-03-22T02:28:36;11.70;68.30
19567;DHT22;9930;49.240;8.548;2024-03-22T02:31:02;11.70;68.30
19567;DHT22;9930;49.240;8.548;2024-03-22T02:33:29;11.70;68.30
19567;DHT22;9930;49.240;8.548;2024-03-22T02:35:55;11.70;68.40
19567;DHT22;9930;49.240;8.548;2024-03-22T02:38:22;11.80;68.50
19567;DHT22;9930;49.240;8.548;2024-03-22T02:40:49;11.80;68.50
19567;DHT22;9930;49.240;8.548;2024-03-22T02:43:16;11.80;68.60
19567;DHT22;9930;49.240;8.548;2024-03-22T02:45:44;11.80;68.60
19567;DHT22;9930;49.240;8.548;2024-03-22T02:48:11;11.80;68.60
19567;DHT22;9930;49.240;8.548;2024-03-22T02:50:37;11.80;68.60
19567;DHT22;9930;49.240;8.548;2024-03-22T02:53:04;11.80;68.50
19567;DHT22;9930;49.240;8.548;2024-03-22T02:55:30;11.80;68.50
19567;DHT22;9930;49.240;8.548;2024-03-22T02:58:01;11.80;68.60
19567;DHT22;9930;49.240;8.548;2024-03-22T03:00:28;11.80;68.70
19567;DHT22;9930;49.240;8.548;2024-03-22T03:02:54;11.70;68.60
19567;DHT22;9930;49.240;8.548;2024-03-22T03:05:20;11.70;68.60
19567;DHT22;9930;49.240;8.548;2024-03-22T03:07:45;11.70;68.60
19567;DHT22;9930;49.240;8.548;2024-03-22T03:10:12;11.60;68.50
19567;DHT22;9930;49.240;8.548;2024-03-22T03:12:38;11.60;68.50
19567;DHT22;9930;49.240;8.548;2024-03-22T03:15:04;11.60;68.50
19567;DHT22;9930;49.240;8.548;2024-03-22T03:17:30;11.60;68.60
19567;DHT22;9930;49.240;8.548;2024-03-22T03:19:55;11.50;68.50
19567;DHT22;9930;49.240;8.548;2024-03-22T03:22:21;11.40;68.50
19567;DHT22;9930;49.240;8.548;2024-03-22T03:24:48;11.40;68.50
19567;DHT22;9930;49.240;8.548;2024-03-22T03:27:13;11.40;68.60
19567;DHT22;9930;49.240;8.548;2024-03-22T03:29:39;11.40;68.70
19567;DHT22;9930;49.240;8.548;2024-03-22T03:32:05;11.30;68.70
19567;DHT22;9930;49.240;8.548;2024-03-22T03:34:30;11.30;68.80
19567;DHT22;9930;49.240;8.548;2024-03-22T03:36:57;11.20;68.80
19567;DHT22;9930;49.240;8.548;2024-03-22T03:39:26;11.20;68.80
19567;DHT22;9930;49.240;8.548;2024-03-22T03:41:55;11.20;69.00
19567;DHT22;9930;49.240;8.548;2024-03-22T03:44:20;11.20;69.20
19567;DHT22;9930;49.240;8.548;2024-03-22T03:46:46;11.20;69.20
19567;DHT22;9930;49.240;8.548;2024-03-22T03:49:12;11.10;69.30
19567;DHT22;9930;49.240;8.548;2024-03-22T03:51:37;11.10;69.30
19567;DHT22;9930;49.240;8.548;2024-03-22T03:54:03;11.10;69.50
19567;DHT22;9930;49.240;8.548;2024-03-22T03:56:30;11.10;69.40
19567;DHT22;9930;49.240;8.548;2024-03-22T03:58:56;11.10;69.40
19567;DHT22;9930;49.240;8.548;2024-03-22T04:01:24;11.10;69.40
19567;DHT22;9930;49.240;8.548;2024-03-22T04:03:50;11.10;69.40
19567;DHT22;9930;49.240;8.548;2024-03-22T04:06:16;11.00;69.30
19567;DHT22;9930;49.240;8.548;2024-03-22T04:08:42;11.00;69.40
19567;DHT22;9930;49.240;8.548;2024-03-22T04:11:08;11.00;69.40
19567;DHT22;9930;49.240;8.548;2024-03-22T04:13:34;11.00;69.40
19567;DHT22;9930;49.240;8.548;2024-03-22T04:16:00;10.90;69.40
19567;DHT22;9930;49.240;8.548;2024-03-22T04:18:26;10.90;69.40
19567;DHT22;9930;49.240;8.548;2024-03-22T04:20:57;10.90;69.40
19567;DHT22;9930;49.240;8.548;2024-03-22T04:23:28;10.90;69.60
19567;DHT22;9930;49.240;8.548;2024-03-22T04:25:55;10.80;69.60
19567;DHT22;9930;49.240;8.548;2024-03-22T04:28:24;10.80;69.70
19567;DHT22;9930;49.240;8.548;2024-03-22T04:31:01;10.80;70.50
19567;DHT22;9930;49.240;8.548;2024-03-22T04:33:31;10.80;70.10
19567;DHT22;9930;49.240;8.548;2024-03-22T04:35:59;10.70;69.80
19567;DHT22;9930;49.240;8.548;2024-03-22T04:38:27;10.70;69.90
19567;DHT22;9930;49.240;8.548;2024-03-22T04:40:54;10.70;70.00
19567;DHT22;9930;49.240;8.548;2024-03-22T04:43:20;10.70;70.10
19567;DHT22;9930;49.240;8.548;2024-03-22T04:45:47;10.70;70.20
19567;DHT22;9930;49.240;8.548;2024-03-22T04:48:14;10.70;70.30
19567;DHT22;9930;49.240;8.548;2024-03-22T04:50:42;10.70;70.40
19567;DHT22;9930;49.240;8.548;2024-03-22T04:53:08;10.70;70.40
19567;DHT22;9930;49.240;8.548;2024-03-22T04:55:34;10.70;70.50
19567;DHT22;9930;49.240;8.548;2024-03-22T04:58:00;10.70;70.60
19567;DHT22;9930;49.240;8.548;2024-03-22T05:00:26;10.60;70.50
19567;DHT22;9930;49.240;8.548;2024-03-22T05:02:54;10.60;70.50
19567;DHT22;9930;49.240;8.548;2024-03-22T05:05:20;10.60;70.60
19567;DHT22;9930;49.240;8.548;2024-03-22T05:07:45;10.70;70.70
19567;DHT22;9930;49.240;8.548;2024-03-22T05:10:12;10.60;70.60
19567;DHT22;9930;49.240;8.548;2024-03-22T05:12:38;10.60;70.70
19567;DHT22;9930;49.240;8.548;2024-03-22T05:15:05;10.60;70.60
19567;DHT22;9930;49.240;8.548;2024-03-22T05:17:32;10.60;70.70
19567;DHT22;9930;49.240;8.548;2024-03-22T05:20:01;10.60;70.90
19567;DHT22;9930;49.240;8.548;2024-03-22T05:22:30;10.60;70.90
19567;DHT22;9930;49.240;8.548;2024-03-22T05:24:57;10.60;71.00
19567;DHT22;9930;49.240;8.548;2024-03-22T05:27:23;10.60;70.80
19567;DHT22;9930;49.240;8.548;2024-03-22T05:29:49;10.60;70.90
19567;DHT22;9930;49.240;8.548;2024-03-22T05:32:15;10.60;70.90
19567;DHT22;9930;49.240;8.548;2024-03-22T05:34:40;10.50;70.90
19567;DHT22;9930;49.240;8.548;2024-03-22T05:37:06;10.60;71.00
19567;DHT22;9930;49.240;8.548;2024-03-22T05:39:32;10.50;71.00
19567;DHT22;9930;49.240;8.548;2024-03-22T05:41:59;10.50;71.00
19567;DHT22;9930;49.240;8.548;2024-03-22T05:44:24;10.50;71.00
19567;DHT22;9930;49.240;8.548;2024-03-22T05:46:53;10.50;71.10
19567;DHT22;9930;49.240;8.548;2024-03-22T05:49:18;10.50;71.20
19567;DHT22;9930;49.240;8.548;2024-03-22T05:51:44;10.50;71.20
19567;DHT22;9930;49.240;8.548;2024-03-22T05:54:10;10.50;71.20
19567;DHT22;9930;49.240;8.548;2024-03-22T05:56:35;10.50;71.20
19567;DHT22;9930;49.240;8.548;2024-03-22T05:59:01;10.50;71.30
19567;DHT22;9930;49.240;8.548;2024-03-22T06:01:28;10.50;71.40
19567;DHT22;9930;49.240;8.548;2024-03-22T06:03:54;10.40;71.20
19567;DHT22;9930;49.240;8.548;2024-03-22T06:06:20;10.40;71.40
19567;DHT22;9930;49.240;8.548;2024-03-22T06:08:50;10.40;71.50
19567;DHT22;9930;49.240;8.548;2024-03-22T06:11:18;10.40;71.50
19567;DHT22;9930;49.240;8.548;2024-03-22T06:13:44;10.40;71.60
19567;DHT22;9930;49.240;8.548;2024-03-22T06:16:09;10.40;71.70
19567;DHT22;9930;49.240;8.548;2024-03-22T06:18:36;10.50;71.80
19567;DHT22;9930;49.240;8.548;2024-03-22T06:21:02;10.50;71.90
19567;DHT22;9930;49.240;8.548;2024-03-22T06:23:29;10.50;72.00
19567;DHT22;9930;49.240;8.548;2024-03-22T06:25:55;10.50;72.00
19567;DHT22;9930;49.240;8.548;2024-03-22T06:28:22;10.50;72.00
19567;DHT22;9930;49.240;8.548;2024-03-22T06:30:49;10.50;72.00
19567;DHT22;9930;49.240;8.548;2024-03-22T06:33:14;10.50;72.20
19567;DHT22;9930;49.240;8.548;2024-03-22T06:35:42;10.60;72.30
19567;DHT22;9930;49.240;8.548;2024-03-22T06:38:07;10.60;72.40
19567;DHT22;9930;49.240;8.548;2024-03-22T06:40:33;10.60;72.40
19567;DHT22;9930;49.240;8.548;2024-03-22T06:42:59;10.70;72.50
19567;DHT22;9930;49.240;8.548;2024-03-22T06:45:25;10.70;73.20
19567;DHT22;9930;49.240;8.548;2024-03-22T06:47:51;10.70;72.50
19567;DHT22;9930;49.240;8.548;2024-03-22T06:50:17;10.80;72.60
19567;DHT22;9930;49.240;8.548;2024-03-22T06:52:50;10.90;73.40
19567;DHT22;9930;49.240;8.548;2024-03-22T06:55:17;10.90;72.80
19567;DHT22;9930;49.240;8.548;2024-03-22T06:57:44;11.00;73.10
19567;DHT22;9930;49.240;8.548;2024-03-22T07:00:11;11.10;73.20
19567;DHT22;9930;49.240;8.548;2024-03-22T07:02:38;11.20;73.70
19567;DHT22;9930;49.240;8.548;2024-03-22T07:05:06;11.30;74.10
19567;DHT22;9930;49.240;8.548;2024-03-22T07:07:33;11.50;74.80
19567;DHT22;9930;49.240;8.548;2024-03-22T07:09:59;11.70;74.60
19567;DHT22;9930;49.240;8.548;2024-03-22T07:12:25;11.90;74.60
19567;DHT22;9930;49.240;8.548;2024-03-22T07:14:51;12.10;74.70
19567;DHT22;9930;49.240;8.548;2024-03-22T07:17:16;12.30;74.60
19567;DHT22;9930;49.240;8.548;2024-03-22T07:19:42;12.50;74.50
19567;DHT22;9930;49.240;8.548;2024-03-22T07:22:08;12.70;74.40
19567;DHT22;9930;49.240;8.548;2024-03-22T07:24:34;12.90;74.40
19567;DHT22;9930;49.240;8.548;2024-03-22T07:27:00;13.10;74.40
19567;DHT22;9930;49.240;8.548;2024-03-22T07:29:26;13.30;74.20
19567;DHT22;9930;49.240;8.548;2024-03-22T07:31:51;13.50;74.20
19567;DHT22;9930;49.240;8.548;2024-03-22T07:34:17;13.70;74.20
19567;DHT22;9930;49.240;8.548;2024-03-22T07:36:42;13.90;74.20
19567;DHT22;9930;49.240;8.548;2024-03-22T07:39:08;14.10;74.20
19567;DHT22;9930;49.240;8.548;2024-03-22T07:41:38;14.20;74.20
19567;DHT22;9930;49.240;8.548;2024-03-22T07:44:03;14.40;74.10
19567;DHT22;9930;49.240;8.548;2024-03-22T07:46:30;14.60;74.10
19567;DHT22;9930;49.240;8.548;2024-03-22T07:48:56;14.80;74.00
19567;DHT22;9930;49.240;8.548;2024-03-22T07:51:22;15.00;73.90
19567;DHT22;9930;49.240;8.548;2024-03-22T07:53:48;15.20;73.80
19567;DHT22;9930;49.240;8.548;2024-03-22T07:56:13;15.40;73.60
19567;DHT22;9930;49.240;8.548;2024-03-22T07:58:41;15.60;73.60
19567;DHT22;9930;49.240;8.548;2024-03-22T08:01:07;15.80;73.30
19567;DHT22;9930;49.240;8.548;2024-03-22T08:03:33;15.90;73.10
19567;DHT22;9930;49.240;8.548;2024-03-22T08:05:59;16.20;72.90
19567;DHT22;9930;49.240;8.548;2024-03-22T08:08:24;16.30;72.30
19567;DHT22;9930;49.240;8.548;2024-03-22T08:10:50;16.40;71.90
19567;DHT22;9930;49.240;8.548;2024-03-22T08:13:16;16.50;71.30
19567;DHT22;9930;49.240;8.548;2024-03-22T08:15:42;16.60;71.00
19567;DHT22;9930;49.240;8.548;2024-03-22T08:18:11;16.60;70.80
19567;DHT22;9930;49.240;8.548;2024-03-22T08:20:36;16.70;70.70
19567;DHT22;9930;49.240;8.548;2024-03-22T08:23:04;16.70;70.60
19567;DHT22;9930;49.240;8.548;2024-03-22T08:25:32;16.80;70.70
19567;DHT22;9930;49.240;8.548;2024-03-22T08:27:59;16.80;70.60
19567;DHT22;9930;49.240;8.548;2024-03-22T08:30:25;16.90;70.70
19567;DHT22;9930;49.240;8.548;2024-03-22T08:32:52;16.90;70.60
19567;DHT22;9930;49.240;8.548;2024-03-22T08:35:17;17.00;70.40
19567;DHT22;9930;49.240;8.548;2024-03-22T08:37:43;17.10;70.30
19567;DHT22;9930;49.240;8.548;2024-03-22T08:40:09;17.20;70.50
19567;DHT22;9930;49.240;8.548;2024-03-22T08:42:36;17.30;70.30
19567;DHT22;9930;49.240;8.548;2024-03-22T08:45:02;17.40;70.10
19567;DHT22;9930;49.240;8.548;2024-03-22T08:47:29;17.50;69.80
19567;DHT22;9930;49.240;8.548;2024-03-22T08:49:56;17.60;69.40
19567;DHT22;9930;49.240;8.548;2024-03-22T08:52:23;17.70;69.10
19567;DHT22;9930;49.240;8.548;2024-03-22T08:54:51;17.80;69.00
19567;DHT22;9930;49.240;8.548;2024-03-22T08:57:17;17.80;68.80
19567;DHT22;9930;49.240;8.548;2024-03-22T08:59:43;17.90;68.80
19567;DHT22;9930;49.240;8.548;2024-03-22T09:02:09;18.00;68.60
19567;DHT22;9930;49.240;8.548;2024-03-22T09:04:35;18.10;68.30
19567;DHT22;9930;49.240;8.548;2024-03-22T09:07:00;18.10;68.00
19567;DHT22;9930;49.240;8.548;2024-03-22T09:09:26;18.10;67.70
19567;DHT22;9930;49.240;8.548;2024-03-22T09:11:52;18.20;67.50
19567;DHT22;9930;49.240;8.548;2024-03-22T09:14:18;18.20;67.30
19567;DHT22;9930;49.240;8.548;2024-03-22T09:16:43;18.20;67.20
19567;DHT22;9930;49.240;8.548;2024-03-22T09:19:09;18.30;67.10
19567;DHT22;9930;49.240;8.548;2024-03-22T09:21:36;18.30;67.00
19567;DHT22;9930;49.240;8.548;2024-03-22T09:24:02;18.30;66.90
19567;DHT22;9930;49.240;8.548;2024-03-22T09:26:32;18.30;66.70
19567;DHT22;9930;49.240;8.548;2024-03-22T09:28:58;18.30;66.50
19567;DHT22;9930;49.240;8.548;2024-03-22T09:31:24;18.30;66.30
19567;DHT22;9930;49.240;8.548;2024-03-22T09:33:50;18.30;66.10
19567;DHT22;9930;49.240;8.548;2024-03-22T09:36:15;18.30;66.20
19567;DHT22;9930;49.240;8.548;2024-03-22T09:38:41;18.30;66.00
19567;DHT22;9930;49.240;8.548;2024-03-22T09:41:07;18.30;65.90
19567;DHT22;9930;49.240;8.548;2024-03-22T09:43:33;18.30;65.80
19567;DHT22;9930;49.240;8.548;2024-03-22T09:46:00;18.30;65.70
19567;DHT22;9930;49.240;8.548;2024-03-22T09:48:28;18.40;65.70
19567;DHT22;9930;49.240;8.548;2024-03-22T09:50:54;18.40;65.70
19567;DHT22;9930;49.240;8.548;2024-03-22T09:53:21;18.50;65.80
19567;DHT22;9930;49.240;8.548;2024-03-22T09:55:48;18.50;65.70
19567;DHT22;9930;49.240;8.548;2024-03-22T09:58:15;18.60;65.70
19567;DHT22;9930;49.240;8.548;2024-03-22T10:00:45;18.60;65.60
19567;DHT22;9930;49.240;8.548;2024-03-22T10:03:11;18.70;65.50
19567;DHT22;9930;49.240;8.548;2024-03-22T10:05:36;18.70;65.40
19567;DHT22;9930;49.240;8.548;2024-03-22T10:08:06;18.80;65.30
19567;DHT22;9930;49.240;8.548;2024-03-22T10:10:34;18.80;65.00
19567;DHT22;9930;49.240;8.548;2024-03-22T10:13:01;18.90;64.90
19567;DHT22;9930;49.240;8.548;2024-03-22T10:15:30;18.90;64.90
19567;DHT22;9930;49.240;8.548;2024-03-22T10:17:57;19.00;65.00
19567;DHT22;9930;49.240;8.548;2024-03-22T10:20:24;19.00;64.90
19567;DHT22;9930;49.240;8.548;2024-03-22T10:22:55;19.10;64.60
19567;DHT22;9930;49.240;8.548;2024-03-22T10:25:26;19.10;64.50
19567;DHT22;9930;49.240;8.548;2024-03-22T10:27:56;19.20;64.70
19567;DHT22;9930;49.240;8.548;2024-03-22T10:30:24;19.30;64.70
19567;DHT22;9930;49.240;8.548;2024-03-22T10:32:51;19.30;64.70
19567;DHT22;9930;49.240;8.548;2024-03-22T10:35:17;19.40;64.60
19567;DHT22;9930;49.240;8.548;2024-03-22T10:37:44;19.50;64.50
19567;DHT22;9930;49.240;8.548;2024-03-22T10:40:10;19.60;64.40
19567;DHT22;9930;49.240;8.548;2024-03-22T10:45:08;19.70;64.20
19567;DHT22;9930;49.240;8.548;2024-03-22T10:47:37;19.80;64.00
19567;DHT22;9930;49.240;8.548;2024-03-22T10:50:08;19.90;64.00
19567;DHT22;9930;49.240;8.548;2024-03-22T10:55:38;20.00;63.60
19567;DHT22;9930;49.240;8.548;2024-03-22T10:58:18;20.00;63.10
19567;DHT22;9930;49.240;8.548;2024-03-22T11:00:46;20.00;62.60
19567;DHT22;9930;49.240;8.548;2024-03-22T11:03:13;20.10;63.00
19567;DHT22;9930;49.240;8.548;2024-03-22T11:05:48;20.10;62.80
19567;DHT22;9930;49.240;8.548;2024-03-22T11:08:36;20.10;62.20
19567;DHT22;9930;49.240;8.548;2024-03-22T11:11:10;20.10;61.90
19567;DHT22;9930;49.240;8.548;2024-03-22T11:13:36;20.20;62.30
19567;DHT22;9930;49.240;8.548;2024-03-22T11:16:04;20.20;62.60
19567;DHT22;9930;49.240;8.548;2024-03-22T11:18:30;20.30;62.30
19567;DHT22;9930;49.240;8.548;2024-03-22T11:20:57;20.30;61.80
19567;DHT22;9930;49.240;8.548;2024-03-22T11:23:23;20.30;61.60
19567;DHT22;9930;49.240;8.548;2024-03-22T11:25:48;20.40;61.60
19567;DHT22;9930;49.240;8.548;2024-03-22T11:28:14;20.40;61.50
19567;DHT22;9930;49.240;8.548;2024-03-22T11:30:40;20.40;61.40
19567;DHT22;9930;49.240;8.548;2024-03-22T11:33:06;20.50;61.10
19567;DHT22;9930;49.240;8.548;2024-03-22T11:35:33;20.50;60.70
19567;DHT22;9930;49.240;8.548;2024-03-22T11:37:59;20.50;60.40
19567;DHT22;9930;49.240;8.548;2024-03-22T11:40:26;20.50;60.30
19567;DHT22;9930;49.240;8.548;2024-03-22T11:42:54;20.50;60.40
19567;DHT22;9930;49.240;8.548;2024-03-22T11:45:23;20.60;60.40
19567;DHT22;9930;49.240;8.548;2024-03-22T11:47:54;20.60;60.20
19567;DHT22;9930;49.240;8.548;2024-03-22T11:50:19;20.60;60.10
19567;DHT22;9930;49.240;8.548;2024-03-22T11:52:46;20.60;60.10
19567;DHT22;9930;49.240;8.548;2024-03-22T11:55:13;20.60;60.70
19567;DHT22;9930;49.240;8.548;2024-03-22T11:57:40;20.60;60.00
19567;DHT22;9930;49.240;8.548;2024-03-22T12:00:07;20.60;59.90
19567;DHT22;9930;49.240;8.548;2024-03-22T12:02:38;20.60;59.60
19567;DHT22;9930;49.240;8.548;2024-03-22T12:05:05;20.60;59.50
19567;DHT22;9930;49.240;8.548;2024-03-22T12:07:31;20.60;59.30
19567;DHT22;9930;49.240;8.548;2024-03-22T12:10:00;20.60;59.10
19567;DHT22;9930;49.240;8.548;2024-03-22T12:12:26;20.70;59.10
19567;DHT22;9930;49.240;8.548;2024-03-22T12:14:52;20.70;59.10
19567;DHT22;9930;49.240;8.548;2024-03-22T12:17:18;20.70;59.20
19567;DHT22;9930;49.240;8.548;2024-03-22T12:19:44;20.70;59.80
19567;DHT22;9930;49.240;8.548;2024-03-22T12:22:10;20.80;58.90
19567;DHT22;9930;49.240;8.548;2024-03-22T12:24:36;20.80;58.80
19567;DHT22;9930;49.240;8.548;2024-03-22T12:27:02;20.90;58.50
19567;DHT22;9930;49.240;8.548;2024-03-22T12:29:28;20.90;58.50
19567;DHT22;9930;49.240;8.548;2024-03-22T12:31:54;20.90;58.30
19567;DHT22;9930;49.240;8.548;2024-03-22T12:34:20;20.90;58.30
19567;DHT22;9930;49.240;8.548;2024-03-22T12:36:48;21.00;58.10
19567;DHT22;9930;49.240;8.548;2024-03-22T12:39:14;21.00;58.10
19567;DHT22;9930;49.240;8.548;2024-03-22T12:41:40;21.00;57.90
19567;DHT22;9930;49.240;8.548;2024-03-22T12:44:06;21.00;58.20
19567;DHT22;9930;49.240;8.548;2024-03-22T12:46:31;21.00;57.40
19567;DHT22;9930;49.240;8.548;2024-03-22T12:48:57;21.00;57.20
19567;DHT22;9930;49.240;8.548;2024-03-22T12:51:23;20.90;57.00
19567;DHT22;9930;49.240;8.548;2024-03-22T12:53:49;20.90;57.00
19567;DHT22;9930;49.240;8.548;2024-03-22T12:56:15;20.90;57.00
19567;DHT22;9930;49.240;8.548;2024-03-22T12:58:41;20.90;57.00
19567;DHT22;9930;49.240;8.548;2024-03-22T13:01:08;20.90;56.90
19567;DHT22;9930;49.240;8.548;2024-03-22T13:03:36;20.90;56.90
19567;DHT22;9930;49.240;8.548;2024-03-22T13:06:03;21.00;56.80
19567;DHT22;9930;49.240;8.548;2024-03-22T13:08:31;21.00;56.60
19567;DHT22;9930;49.240;8.548;2024-03-22T13:10:57;21.00;56.30
19567;DHT22;9930;49.240;8.548;2024-03-22T13:13:23;21.00;56.10
19567;DHT22;9930;49.240;8.548;2024-03-22T13:15:49;21.10;56.00
19567;DHT22;9930;49.240;8.548;2024-03-22T13:18:14;21.10;56.20
19567;DHT22;9930;49.240;8.548;2024-03-22T13:20:40;21.10;56.00
19567;DHT22;9930;49.240;8.548;2024-03-22T13:23:06;21.10;55.90
19567;DHT22;9930;49.240;8.548;2024-03-22T13:25:35;21.10;55.80
19567;DHT22;9930;49.240;8.548;2024-03-22T13:28:03;21.10;55.70
19567;DHT22;9930;49.240;8.548;2024-03-22T13:30:31;21.10;55.70
19567;DHT22;9930;49.240;8.548;2024-03-22T13:32:57;21.10;55.70
19567;DHT22;9930;49.240;8.548;2024-03-22T13:35:22;21.10;55.60
19567;DHT22;9930;49.240;8.548;2024-03-22T13:37:48;21.10;55.80
19567;DHT22;9930;49.240;8.548;2024-03-22T13:40:15;21.10;55.80
19567;DHT22;9930;49.240;8.548;2024-03-22T13:42:41;21.10;55.80
19567;DHT22;9930;49.240;8.548;2024-03-22T13:45:07;21.20;55.80
19567;DHT22;9930;49.240;8.548;2024-03-22T13:47:33;21.20;55.70
19567;DHT22;9930;49.240;8.548;2024-03-22T13:49:59;21.20;55.80
19567;DHT22;9930;49.240;8.548;2024-03-22T13:52:25;21.20;55.70
19567;DHT22;9930;49.240;8.548;2024-03-22T13:54:51;21.30;55.80
19567;DHT22;9930;49.240;8.548;2024-03-22T13:57:17;21.30;55.70
19567;DHT22;9930;49.240;8.548;2024-03-22T13:59:43;21.30;55.70
19567;DHT22;9930;49.240;8.548;2024-03-22T14:02:09;21.30;55.50
19567;DHT22;9930;49.240;8.548;2024-03-22T14:04:35;21.30;55.40
19567;DHT22;9930;49.240;8.548;2024-03-22T14:07:02;21.30;55.40
19567;DHT22;9930;49.240;8.548;2024-03-22T14:09:31;21.30;55.30
19567;DHT22;9930;49.240;8.548;2024-03-22T14:12:00;21.40;55.40
19567;DHT22;9930;49.240;8.548;2024-03-22T14:14:28;21.40;55.50
19567;DHT22;9930;49.240;8.548;2024-03-22T14:16:55;21.30;55.30
19567;DHT22;9930;49.240;8.548;2024-03-22T14:19:21;21.40;55.50
19567;DHT22;9930;49.240;8.548;2024-03-22T14:21:46;21.40;55.30
19567;DHT22;9930;49.240;8.548;2024-03-22T14:24:13;21.40;55.30
19567;DHT22;9930;49.240;8.548;2024-03-22T14:26:39;21.50;55.40
19567;DHT22;9930;49.240;8.548;2024-03-22T14:29:14;21.50;55.30
19567;DHT22;9930;49.240;8.548;2024-03-22T14:31:39;21.50;55.30
19567;DHT22;9930;49.240;8.548;2024-03-22T14:34:08;21.60;55.50
19567;DHT22;9930;49.240;8.548;2024-03-22T14:36:34;21.60;55.20
19567;DHT22;9930;49.240;8.548;2024-03-22T14:38:59;21.60;55.10
19567;DHT22;9930;49.240;8.548;2024-03-22T14:41:25;21.70;55.00
19567;DHT22;9930;49.240;8.548;2024-03-22T14:43:51;21.70;54.80
19567;DHT22;9930;49.240;8.548;2024-03-22T14:46:17;21.80;54.80
19567;DHT22;9930;49.240;8.548;2024-03-22T14:48:50;21.80;54.50
19567;DHT22;9930;49.240;8.548;2024-03-22T14:51:16;21.70;54.40
19567;DHT22;9930;49.240;8.548;2024-03-22T14:53:42;21.80;54.30
19567;DHT22;9930;49.240;8.548;2024-03-22T14:56:07;21.70;54.30
19567;DHT22;9930;49.240;8.548;2024-03-22T14:58:37;21.70;54.20
19567;DHT22;9930;49.240;8.548;2024-03-22T15:01:04;21.70;53.90
19567;DHT22;9930;49.240;8.548;2024-03-22T15:03:34;21.70;54.00
19567;DHT22;9930;49.240;8.548;2024-03-22T15:06:00;21.60;54.00
19567;DHT22;9930;49.240;8.548;2024-03-22T15:08:27;21.60;54.00
19567;DHT22;9930;49.240;8.548;2024-03-22T15:10:56;21.60;54.20
19567;DHT22;9930;49.240;8.548;2024-03-22T15:13:22;21.50;54.20
19567;DHT22;9930;49.240;8.548;2024-03-22T15:15:54;21.50;54.00
19567;DHT22;9930;49.240;8.548;2024-03-22T15:18:21;21.50;53.80
19567;DHT22;9930;49.240;8.548;2024-03-22T15:20:47;21.50;54.00
19567;DHT22;9930;49.240;8.548;2024-03-22T15:23:17;21.50;54.00
19567;DHT22;9930;49.240;8.548;2024-03-22T15:25:44;21.40;53.80
19567;DHT22;9930;49.240;8.548;2024-03-22T15:28:10;21.40;53.80
19567;DHT22;9930;49.240;8.548;2024-03-22T15:30:37;21.40;53.90
19567;DHT22;9930;49.240;8.548;2024-03-22T15:33:04;21.40;53.90
19567;DHT22;9930;49.240;8.548;2024-03-22T15:35:30;21.30;53.70
19567;DHT22;9930;49.240;8.548;2024-03-22T15:37:57;21.30;53.70
19567;DHT22;9930;49.240;8.548;2024-03-22T15:40:23;21.30;53.70
19567;DHT22;9930;49.240;8.548;2024-03-22T15:42:49;21.20;53.70
19567;DHT22;9930;49.240;8.548;2024-03-22T15:45:15;21.20;53.80
19567;DHT22;9930;49.240;8.548;2024-03-22T15:47:41;21.10;53.80